sensor_id;sensor_type;location;lat;lon;timestamp;pressure;altitude;pressure_sealevel;temperature;humidity
33554;BME280;19885;42.208;24.952;2024-03-23T00:51:13;100072.81;;;5.86;89.71
33554;BME280;19885;42.208;24.952;2024-03-23T00:56:07;100068.00;;;5.69;91.69
33554;BME280;19885;42.208;24.952;2024-03-23T00:58:35;100067.97;;;5.98;92.98
33554;BME280;19885;42.208;24.952;2024-03-23T01:01:01;100063.22;;;6.13;91.84
33554;BME280;19885;42.208;24.952;2024-03-23T01:03:28;100068.41;;;6.13;89.21
33554;BME280;19885;42.208;24.952;2024-03-23T01:05:54;100061.47;;;6.12;90.34
33554;BME280;19885;42.208;24.952;2024-03-23T01:08:19;100064.19;;;6.18;91.97
33554;BME280;19885;42.208;24.952;2024-03-23T01:10:53;100065.94;;;6.17;92.75
33554;BME280;19885;42.208;24.952;2024-03-23T01:13:22;100060.81;;;6.20;91.13
33554;BME280;19885;42.208;24.952;2024-03-23T01:15:48;100064.13;;;6.15;90.90
33554;BME280;19885;42.208;24.952;2024-03-23T01:18:13;100064.97;;;6.14;90.46
33554;BME280;19885;42.208;24.952;2024-03-23T01:20:39;100070.19;;;6.15;89.98
33554;BME280;19885;42.208;24.952;2024-03-23T01:23:04;100068.72;;;5.94;92.40
33554;BME280;19885;42.208;24.952;2024-03-23T01:25:33;100004.50;;;5.49;90.92
33554;BME280;19885;42.208;24.952;2024-03-23T01:27:58;100064.50;;;5.69;90.58
33554;BME280;19885;42.208;24.952;2024-03-23T01:30:24;100073.41;;;5.49;93.14
33554;BME280;19885;42.208;24.952;2024-03-23T01:32:49;100065.59;;;5.47;95.02
33554;BME280;19885;42.208;24.952;2024-03-23T01:35:14;100068.91;;;5.43;93.89
33554;BME280;19885;42.208;24.952;2024-03-23T01:37:40;100069.53;;;5.36;93.87
33554;BME280;19885;42.208;24.952;2024-03-23T01:40:05;100070.44;;;5.37;94.93
33554;BME280;19885;42.208;24.952;2024-03-23T01:42:31;100065.97;;;4.78;96.44
33554;BME280;19885;42.208;24.952;2024-03-23T01:44:59;100062.56;;;4.79;97.99
33554;BME280;19885;42.208;24.952;2024-03-23T01:47:29;100060.38;;;4.91;97.75
33554;BME280;19885;42.208;24.952;2024-03-23T01:49:54;100065.13;;;5.04;99.06
33554;BME280;19885;42.208;24.952;2024-03-23T01:52:19;100068.34;;;5.25;97.53
33554;BME280;19885;42.208;24.952;2024-03-23T01:54:48;100065.19;;;5.34;97.53
33554;BME280;19885;42.208;24.952;2024-03-23T01:57:17;100064.38;;;5.36;97.92
33554;BME280;19885;42.208;24.952;2024-03-23T01:59:48;100061.94;;;5.41;96.26
33554;BME280;19885;42.208;24.952;2024-03-23T02:02:14;100065.22;;;5.35;96.13
33554;BME280;19885;42.208;24.952;2024-03-23T02:04:42;100072.31;;;5.14;96.16
33554;BME280;19885;42.208;24.952;2024-03-23T02:07:08;100070.47;;;5.10;97.22
33554;BME280;19885;42.208;24.952;2024-03-23T02:09:38;100069.94;;;5.20;94.83
33554;BME280;19885;42.208;24.952;2024-03-23T02:12:06;100063.25;;;5.27;93.58
33554;BME280;19885;42.208;24.952;2024-03-23T02:14:32;100069.38;;;5.30;94.11
33554;BME280;19885;42.208;24.952;2024-03-23T02:16:57;100066.47;;;5.20;94.72
33554;BME280;19885;42.208;24.952;2024-03-23T02:19:23;100063.81;;;5.18;94.92
33554;BME280;19885;42.208;24.952;2024-03-23T02:21:49;100058.94;;;5.27;96.61
33554;BME280;19885;42.208;24.952;2024-03-23T02:24:14;100068.59;;;5.33;94.82
33554;BME280;19885;42.208;24.952;2024-03-23T02:26:39;100060.88;;;5.34;94.84
33554;BME280;19885;42.208;24.952;2024-03-23T02:29:05;100054.91;;;5.35;94.75
33554;BME280;19885;42.208;24.952;2024-03-23T02:31:33;100060.03;;;5.34;94.31
33554;BME280;19885;42.208;24.952;2024-03-23T02:33:59;100059.03;;;5.30;95.02
33554;BME280;19885;42.208;24.952;2024-03-23T02:36:28;100070.28;;;5.04;95.76
33554;BME280;19885;42.208;24.952;2024-03-23T02:38:55;100068.69;;;5.09;96.67
33554;BME280;19885;42.208;24.952;2024-03-23T02:41:26;100063.50;;;5.07;95.50
33554;BME280;19885;42.208;24.952;2024-03-23T02:43:55;100059.91;;;4.51;96.66
33554;BME280;19885;42.208;24.952;2024-03-23T02:46:20;100056.53;;;4.28;97.74
33554;BME280;19885;42.208;24.952;2024-03-23T02:48:48;100055.75;;;4.30;98.36
33554;BME280;19885;42.208;24.952;2024-03-23T02:51:14;100059.13;;;4.28;98.88
33554;BME280;19885;42.208;24.952;2024-03-23T02:53:39;100058.16;;;4.24;99.59
33554;BME280;19885;42.208;24.952;2024-03-23T02:56:04;100064.56;;;4.12;100.00
33554;BME280;19885;42.208;24.952;2024-03-23T02:58:32;100069.28;;;3.76;100.00
33554;BME280;19885;42.208;24.952;2024-03-23T03:00:58;100076.44;;;3.61;100.00
33554;BME280;19885;42.208;24.952;2024-03-23T03:03:23;100071.63;;;3.48;100.00
33554;BME280;19885;42.208;24.952;2024-03-23T03:05:54;100069.38;;;3.33;100.00
33554;BME280;19885;42.208;24.952;2024-03-23T03:08:19;100073.63;;;3.55;100.00
33554;BME280;19885;42.208;24.952;2024-03-23T03:10:45;100079.97;;;3.63;100.00
33554;BME280;19885;42.208;24.952;2024-03-23T03:13:10;100080.06;;;3.44;100.00
33554;BME280;19885;42.208;24.952;2024-03-23T03:15:39;100068.66;;;3.37;100.00
33554;BME280;19885;42.208;24.952;2024-03-23T03:18:07;100072.44;;;3.69;100.00
33554;BME280;19885;42.208;24.952;2024-03-23T03:20:32;100070.50;;;3.63;100.00
33554;BME280;19885;42.208;24.952;2024-03-23T03:22:58;100070.44;;;3.38;100.00
33554;BME280;19885;42.208;24.952;2024-03-23T03:25:24;100064.28;;;3.13;100.00
33554;BME280;19885;42.208;24.952;2024-03-23T03:27:49;100070.66;;;3.44;100.00
33554;BME280;19885;42.208;24.952;2024-03-23T03:30:17;100077.44;;;3.42;100.00
33554;BME280;19885;42.208;24.952;2024-03-23T03:32:43;100073.63;;;3.55;100.00
33554;BME280;19885;42.208;24.952;2024-03-23T03:35:08;100058.38;;;3.37;100.00
33554;BME280;19885;42.208;24.952;2024-03-23T03:37:36;100074.34;;;3.29;100.00
33554;BME280;19885;42.208;24.952;2024-03-23T03:40:02;100067.91;;;3.40;100.00
33554;BME280;19885;42.208;24.952;2024-03-23T03:42:28;100073.75;;;2.93;100.00
33554;BME280;19885;42.208;24.952;2024-03-23T03:44:53;100074.59;;;2.92;100.00
33554;BME280;19885;42.208;24.952;2024-03-23T03:47:19;100078.09;;;2.73;100.00
33554;BME280;19885;42.208;24.952;2024-03-23T03:49:44;100074.16;;;2.61;100.00
33554;BME280;19885;42.208;24.952;2024-03-23T03:52:10;100067.63;;;2.48;100.00
33554;BME280;19885;42.208;24.952;2024-03-23T03:54:36;100074.00;;;2.37;100.00
33554;BME280;19885;42.208;24.952;2024-03-23T03:57:01;100068.19;;;2.62;100.00
33554;BME280;19885;42.208;24.952;2024-03-23T03:59:27;100080.44;;;2.88;100.00
33554;BME280;19885;42.208;24.952;2024-03-23T04:01:52;100074.53;;;2.91;100.00
33554;BME280;19885;42.208;24.952;2024-03-23T04:04:18;100079.50;;;2.86;100.00
33554;BME280;19885;42.208;24.952;2024-03-23T04:06:43;100072.44;;;3.03;100.00
33554;BME280;19885;42.208;24.952;2024-03-23T04:09:09;100073.50;;;3.08;100.00
33554;BME280;19885;42.208;24.952;2024-03-23T04:11:35;100081.06;;;2.62;100.00
33554;BME280;19885;42.208;24.952;2024-03-23T04:14:00;100075.53;;;2.53;100.00
33554;BME280;19885;42.208;24.952;2024-03-23T04:16:27;100081.63;;;2.75;100.00
33554;BME280;19885;42.208;24.952;2024-03-23T04:18:59;100077.72;;;2.85;100.00
33554;BME280;19885;42.208;24.952;2024-03-23T04:21:29;100088.59;;;2.99;100.00
33554;BME280;19885;42.208;24.952;2024-03-23T04:23:56;100092.22;;;2.83;100.00
33554;BME280;19885;42.208;24.952;2024-03-23T04:26:22;100086.19;;;2.82;100.00
33554;BME280;19885;42.208;24.952;2024-03-23T04:28:47;100083.19;;;2.93;100.00
33554;BME280;19885;42.208;24.952;2024-03-23T04:31:13;100090.44;;;3.03;100.00
33554;BME280;19885;42.208;24.952;2024-03-23T04:33:39;100086.81;;;2.98;100.00
33554;BME280;19885;42.208;24.952;2024-03-23T04:36:05;100086.72;;;2.95;100.00
33554;BME280;19885;42.208;24.952;2024-03-23T04:38:32;100095.22;;;3.14;100.00
33554;BME280;19885;42.208;24.952;2024-03-23T04:40:58;100097.22;;;3.43;100.00
33554;BME280;19885;42.208;24.952;2024-03-23T04:43:28;100100.16;;;3.52;100.00
33554;BME280;19885;42.208;24.952;2024-03-23T04:45:54;100109.09;;;3.62;100.00
33554;BME280;19885;42.208;24.952;2024-03-23T04:48:20;100098.03;;;3.65;100.00
33554;BME280;19885;42.208;24.952;2024-03-23T04:50:47;100098.09;;;3.22;100.00
33554;BME280;19885;42.208;24.952;2024-03-23T04:53:14;100099.72;;;3.20;100.00
33554;BME280;19885;42.208;24.952;2024-03-23T04:55:40;100092.81;;;3.19;100.00
33554;BME280;19885;42.208;24.952;2024-03-23T04:58:06;100099.00;;;3.02;100.00
33554;BME280;19885;42.208;24.952;2024-03-23T05:00:31;100098.66;;;3.15;100.00
33554;BME280;19885;42.208;24.952;2024-03-23T05:02:56;100099.25;;;3.08;100.00
33554;BME280;19885;42.208;24.952;2024-03-23T05:05:22;100101.25;;;2.94;100.00
33554;BME280;19885;42.208;24.952;2024-03-23T05:07:48;100098.31;;;2.64;100.00
33554;BME280;19885;42.208;24.952;2024-03-23T05:10:13;100094.25;;;2.69;100.00
33554;BME280;19885;42.208;24.952;2024-03-23T05:12:39;100090.84;;;2.50;100.00
33554;BME280;19885;42.208;24.952;2024-03-23T05:15:05;100088.66;;;2.38;100.00
33554;BME280;19885;42.208;24.952;2024-03-23T05:17:31;100093.72;;;2.78;100.00
33554;BME280;19885;42.208;24.952;2024-03-23T05:19:57;100099.56;;;2.74;100.00
33554;BME280;19885;42.208;24.952;2024-03-23T05:22:22;100107.66;;;3.04;100.00
33554;BME280;19885;42.208;24.952;2024-03-23T05:24:48;100096.13;;;2.94;100.00
33554;BME280;19885;42.208;24.952;2024-03-23T05:27:13;100102.44;;;3.45;100.00
33554;BME280;19885;42.208;24.952;2024-03-23T05:29:38;100098.84;;;3.63;100.00
33554;BME280;19885;42.208;24.952;2024-03-23T05:32:04;100107.44;;;3.86;100.00
33554;BME280;19885;42.208;24.952;2024-03-23T05:34:29;100102.94;;;4.04;100.00
33554;BME280;19885;42.208;24.952;2024-03-23T05:36:54;100104.59;;;4.26;100.00
33554;BME280;19885;42.208;24.952;2024-03-23T05:39:20;100098.78;;;4.08;100.00
33554;BME280;19885;42.208;24.952;2024-03-23T05:41:47;100103.72;;;3.78;100.00
33554;BME280;19885;42.208;24.952;2024-03-23T05:44:12;100107.41;;;3.63;100.00
33554;BME280;19885;42.208;24.952;2024-03-23T05:46:38;100100.53;;;4.09;100.00
33554;BME280;19885;42.208;24.952;2024-03-23T05:49:03;100101.84;;;4.45;100.00
33554;BME280;19885;42.208;24.952;2024-03-23T05:51:28;100098.75;;;4.55;100.00
33554;BME280;19885;42.208;24.952;2024-03-23T05:53:54;100093.56;;;4.30;100.00
33554;BME280;19885;42.208;24.952;2024-03-23T05:56:19;100093.47;;;4.52;100.00
33554;BME280;19885;42.208;24.952;2024-03-23T05:58:45;100093.31;;;4.22;100.00
33554;BME280;19885;42.208;24.952;2024-03-23T06:01:11;100097.94;;;4.56;100.00
33554;BME280;19885;42.208;24.952;2024-03-23T06:03:37;100089.00;;;4.72;100.00
33554;BME280;19885;42.208;24.952;2024-03-23T06:06:03;100097.53;;;4.69;100.00
33554;BME280;19885;42.208;24.952;2024-03-23T06:08:29;100094.38;;;5.04;100.00
33554;BME280;19885;42.208;24.952;2024-03-23T06:10:54;100093.88;;;5.71;100.00
33554;BME280;19885;42.208;24.952;2024-03-23T06:13:20;100089.41;;;6.25;100.00
33554;BME280;19885;42.208;24.952;2024-03-23T06:15:50;100093.28;;;7.07;97.59
33554;BME280;19885;42.208;24.952;2024-03-23T06:18:15;100095.34;;;7.98;91.00
33554;BME280;19885;42.208;24.952;2024-03-23T06:20:41;100091.81;;;8.84;84.25
33554;BME280;19885;42.208;24.952;2024-03-23T06:23:06;100091.44;;;9.71;80.61
33554;BME280;19885;42.208;24.952;2024-03-23T06:25:34;100093.03;;;10.24;72.16
33554;BME280;19885;42.208;24.952;2024-03-23T06:28:01;100086.28;;;10.41;70.43
33554;BME280;19885;42.208;24.952;2024-03-23T06:30:28;100092.00;;;10.12;71.88
33554;BME280;19885;42.208;24.952;2024-03-23T06:32:57;100087.31;;;10.55;70.14
33554;BME280;19885;42.208;24.952;2024-03-23T06:35:22;100089.88;;;10.52;69.06
33554;BME280;19885;42.208;24.952;2024-03-23T06:37:48;100087.09;;;10.36;73.05
33554;BME280;19885;42.208;24.952;2024-03-23T06:40:13;100085.28;;;10.32;72.11
33554;BME280;19885;42.208;24.952;2024-03-23T06:42:38;100085.72;;;10.71;69.50
33554;BME280;19885;42.208;24.952;2024-03-23T06:45:04;100092.06;;;10.99;68.28
33554;BME280;19885;42.208;24.952;2024-03-23T06:47:30;100095.75;;;11.25;69.98
33554;BME280;19885;42.208;24.952;2024-03-23T06:49:56;100093.28;;;11.47;67.25
33554;BME280;19885;42.208;24.952;2024-03-23T06:52:23;100099.47;;;11.63;68.71
33554;BME280;19885;42.208;24.952;2024-03-23T06:54:49;100093.59;;;11.90;65.14
33554;BME280;19885;42.208;24.952;2024-03-23T06:57:14;100081.41;;;11.95;66.11
33554;BME280;19885;42.208;24.952;2024-03-23T06:59:39;100089.31;;;12.11;67.07
33554;BME280;19885;42.208;24.952;2024-03-23T07:02:05;100089.16;;;11.74;65.49
33554;BME280;19885;42.208;24.952;2024-03-23T07:04:33;100078.75;;;11.86;64.70
33554;BME280;19885;42.208;24.952;2024-03-23T07:06:58;100075.31;;;11.96;64.51
33554;BME280;19885;42.208;24.952;2024-03-23T07:09:26;100071.84;;;11.94;66.24
33554;BME280;19885;42.208;24.952;2024-03-23T07:11:53;100071.94;;;12.20;65.06
33554;BME280;19885;42.208;24.952;2024-03-23T07:14:19;100069.97;;;11.70;65.41
33554;BME280;19885;42.208;24.952;2024-03-23T07:16:44;100070.84;;;11.71;68.01
33554;BME280;19885;42.208;24.952;2024-03-23T07:19:10;100068.53;;;10.91;72.56
33554;BME280;19885;42.208;24.952;2024-03-23T07:21:36;100079.81;;;10.90;72.32
33554;BME280;19885;42.208;24.952;2024-03-23T07:24:01;100079.41;;;11.47;69.35
33554;BME280;19885;42.208;24.952;2024-03-23T07:26:26;100070.75;;;11.63;68.49
33554;BME280;19885;42.208;24.952;2024-03-23T07:28:51;100062.22;;;11.84;70.70
33554;BME280;19885;42.208;24.952;2024-03-23T07:31:18;100060.53;;;12.04;72.37
33554;BME280;19885;42.208;24.952;2024-03-23T07:33:45;100060.50;;;11.95;68.14
33554;BME280;19885;42.208;24.952;2024-03-23T07:36:10;100065.59;;;11.68;71.54
33554;BME280;19885;42.208;24.952;2024-03-23T07:38:36;100053.47;;;11.76;69.21
33554;BME280;19885;42.208;24.952;2024-03-23T07:43:37;100055.72;;;11.24;70.69
33554;BME280;19885;42.208;24.952;2024-03-23T07:46:02;100058.44;;;11.35;75.80
33554;BME280;19885;42.208;24.952;2024-03-23T07:48:29;100049.69;;;11.31;73.20
33554;BME280;19885;42.208;24.952;2024-03-23T07:51:06;100050.66;;;11.42;71.61
33554;BME280;19885;42.208;24.952;2024-03-23T07:53:34;100047.09;;;11.30;71.69
33554;BME280;19885;42.208;24.952;2024-03-23T07:56:06;100048.81;;;11.26;69.72
33554;BME280;19885;42.208;24.952;2024-03-23T07:58:35;100049.50;;;11.04;70.83
33554;BME280;19885;42.208;24.952;2024-03-23T08:03:40;100039.81;;;10.87;82.00
33554;BME280;19885;42.208;24.952;2024-03-23T08:06:18;100041.56;;;10.88;76.29
33554;BME280;19885;42.208;24.952;2024-03-23T08:08:45;100035.66;;;11.11;75.76
33554;BME280;19885;42.208;24.952;2024-03-23T08:11:14;100025.50;;;11.55;82.22
33554;BME280;19885;42.208;24.952;2024-03-23T08:13:39;100025.59;;;11.75;69.45
33554;BME280;19885;42.208;24.952;2024-03-23T08:16:05;100020.47;;;11.93;77.10
33554;BME280;19885;42.208;24.952;2024-03-23T08:18:33;100024.88;;;12.07;75.70
33554;BME280;19885;42.208;24.952;2024-03-23T08:21:03;100029.28;;;12.25;70.18
33554;BME280;19885;42.208;24.952;2024-03-23T08:23:29;100026.59;;;12.08;70.10
33554;BME280;19885;42.208;24.952;2024-03-23T08:25:58;100014.50;;;12.54;69.38
33554;BME280;19885;42.208;24.952;2024-03-23T08:28:24;100012.75;;;12.43;66.36
33554;BME280;19885;42.208;24.952;2024-03-23T08:30:49;100011.94;;;12.56;66.57
33554;BME280;19885;42.208;24.952;2024-03-23T08:33:15;100010.19;;;12.73;65.08
33554;BME280;19885;42.208;24.952;2024-03-23T08:35:41;100006.72;;;12.69;67.02
33554;BME280;19885;42.208;24.952;2024-03-23T08:38:06;99999.72;;;12.94;67.83
33554;BME280;19885;42.208;24.952;2024-03-23T08:40:35;100001.47;;;12.71;62.22
33554;BME280;19885;42.208;24.952;2024-03-23T08:43:00;99997.03;;;12.20;62.63
33554;BME280;19885;42.208;24.952;2024-03-23T08:45:25;99996.19;;;12.30;67.01
33554;BME280;19885;42.208;24.952;2024-03-23T08:47:51;99987.50;;;12.42;70.64
33554;BME280;19885;42.208;24.952;2024-03-23T08:50:16;99992.72;;;12.34;67.67
33554;BME280;19885;42.208;24.952;2024-03-23T08:52:42;99997.97;;;12.57;61.53
33554;BME280;19885;42.208;24.952;2024-03-23T08:55:10;99993.59;;;12.77;67.00
33554;BME280;19885;42.208;24.952;2024-03-23T08:57:38;99984.00;;;12.83;63.48
33554;BME280;19885;42.208;24.952;2024-03-23T09:00:03;99983.16;;;12.92;64.90
33554;BME280;19885;42.208;24.952;2024-03-23T09:02:31;99979.66;;;12.88;65.50
33554;BME280;19885;42.208;24.952;2024-03-23T09:04:59;99971.81;;;13.01;63.11
33554;BME280;19885;42.208;24.952;2024-03-23T09:07:30;99958.66;;;13.49;68.07
33554;BME280;19885;42.208;24.952;2024-03-23T09:09:55;99965.59;;;13.54;61.58
33554;BME280;19885;42.208;24.952;2024-03-23T09:12:20;99961.28;;;13.34;58.93
33554;BME280;19885;42.208;24.952;2024-03-23T09:14:48;99960.47;;;13.14;59.33
33554;BME280;19885;42.208;24.952;2024-03-23T09:17:15;99957.84;;;13.17;60.60
33554;BME280;19885;42.208;24.952;2024-03-23T09:19:40;99954.28;;;13.36;61.33
33554;BME280;19885;42.208;24.952;2024-03-23T09:22:05;99952.50;;;13.56;66.22
33554;BME280;19885;42.208;24.952;2024-03-23T09:24:33;99948.78;;;14.01;65.34
33554;BME280;19885;42.208;24.952;2024-03-23T09:26:58;99941.94;;;13.74;56.65
33554;BME280;19885;42.208;24.952;2024-03-23T09:29:24;99944.28;;;14.24;61.32
33554;BME280;19885;42.208;24.952;2024-03-23T09:31:54;99936.28;;;14.47;55.67
33554;BME280;19885;42.208;24.952;2024-03-23T09:34:19;99932.66;;;14.63;60.87
33554;BME280;19885;42.208;24.952;2024-03-23T09:36:45;99926.16;;;15.00;56.39
33554;BME280;19885;42.208;24.952;2024-03-23T09:39:10;99923.31;;;15.18;51.94
33554;BME280;19885;42.208;24.952;2024-03-23T09:41:36;99917.78;;;15.42;52.63
33554;BME280;19885;42.208;24.952;2024-03-23T09:44:01;99875.50;;;14.92;49.05
33554;BME280;19885;42.208;24.952;2024-03-23T09:46:30;99909.63;;;14.90;56.63
33554;BME280;19885;42.208;24.952;2024-03-23T09:48:59;99910.22;;;15.15;56.13
33554;BME280;19885;42.208;24.952;2024-03-23T09:51:25;99907.31;;;15.41;52.41
33554;BME280;19885;42.208;24.952;2024-03-23T09:53:50;99899.88;;;15.75;52.53
33554;BME280;19885;42.208;24.952;2024-03-23T09:56:17;99890.59;;;16.12;55.66
33554;BME280;19885;42.208;24.952;2024-03-23T09:58:43;99885.88;;;16.32;48.93
33554;BME280;19885;42.208;24.952;2024-03-23T10:01:11;99889.22;;;15.87;47.24
33554;BME280;19885;42.208;24.952;2024-03-23T10:03:43;99879.97;;;16.18;51.47
33554;BME280;19885;42.208;24.952;2024-03-23T10:06:09;99882.38;;;16.33;49.77
33554;BME280;19885;42.208;24.952;2024-03-23T10:08:37;99878.78;;;16.35;49.34
33554;BME280;19885;42.208;24.952;2024-03-23T10:11:15;99866.38;;;16.47;49.31
33554;BME280;19885;42.208;24.952;2024-03-23T10:13:41;99859.59;;;16.82;49.62
33554;BME280;19885;42.208;24.952;2024-03-23T10:16:11;99862.28;;;16.79;46.39
33554;BME280;19885;42.208;24.952;2024-03-23T10:18:39;99857.00;;;16.79;50.58
33554;BME280;19885;42.208;24.952;2024-03-23T10:23:34;99849.81;;;16.89;50.76
33554;BME280;19885;42.208;24.952;2024-03-23T10:26:13;99854.84;;;17.01;42.92
33554;BME280;19885;42.208;24.952;2024-03-23T10:28:51;99839.59;;;16.74;46.04
33554;BME280;19885;42.208;24.952;2024-03-23T10:31:16;99834.94;;;16.86;46.17
33554;BME280;19885;42.208;24.952;2024-03-23T10:33:45;99832.09;;;16.97;47.05
33554;BME280;19885;42.208;24.952;2024-03-23T10:36:13;99822.56;;;16.91;49.13
33554;BME280;19885;42.208;24.952;2024-03-23T10:38:43;99815.91;;;17.15;46.47
33554;BME280;19885;42.208;24.952;2024-03-23T10:41:09;99815.38;;;17.41;46.15
33554;BME280;19885;42.208;24.952;2024-03-23T10:43:35;99817.53;;;17.24;42.14
33554;BME280;19885;42.208;24.952;2024-03-23T10:46:01;99808.59;;;17.29;41.61
33554;BME280;19885;42.208;24.952;2024-03-23T10:48:26;99800.00;;;17.21;41.53
33554;BME280;19885;42.208;24.952;2024-03-23T10:50:54;99799.88;;;17.27;45.89
33554;BME280;19885;42.208;24.952;2024-03-23T10:53:21;99785.13;;;17.58;48.06
33554;BME280;19885;42.208;24.952;2024-03-23T10:55:48;99792.59;;;17.78;46.62
33554;BME280;19885;42.208;24.952;2024-03-23T10:58:13;99785.09;;;17.61;42.44
33554;BME280;19885;42.208;24.952;2024-03-23T11:00:39;99773.16;;;17.82;42.83
33554;BME280;19885;42.208;24.952;2024-03-23T11:05:48;99767.38;;;18.35;45.88
33554;BME280;19885;42.208;24.952;2024-03-23T11:08:32;99760.81;;;18.53;42.35
33554;BME280;19885;42.208;24.952;2024-03-23T11:13:38;99743.78;;;18.65;46.44
33554;BME280;19885;42.208;24.952;2024-03-23T11:16:13;99746.97;;;18.43;38.54
33554;BME280;19885;42.208;24.952;2024-03-23T11:18:44;99742.88;;;18.32;40.27
33554;BME280;19885;42.208;24.952;2024-03-23T11:21:10;99731.03;;;18.14;38.08
33554;BME280;19885;42.208;24.952;2024-03-23T11:23:35;99734.63;;;17.76;37.32
33554;BME280;19885;42.208;24.952;2024-03-23T11:26:06;99713.16;;;17.58;39.22
33554;BME280;19885;42.208;24.952;2024-03-23T11:28:32;99724.81;;;17.45;38.37
33554;BME280;19885;42.208;24.952;2024-03-23T11:31:00;99719.31;;;17.92;42.79
33554;BME280;19885;42.208;24.952;2024-03-23T11:33:28;99706.22;;;18.21;40.62
33554;BME280;19885;42.208;24.952;2024-03-23T11:35:54;99703.38;;;17.97;35.79
33554;BME280;19885;42.208;24.952;2024-03-23T11:38:22;99696.88;;;18.10;39.96
33554;BME280;19885;42.208;24.952;2024-03-23T11:40:48;99693.44;;;18.06;37.87
33554;BME280;19885;42.208;24.952;2024-03-23T11:43:14;99682.25;;;18.30;41.86
33554;BME280;19885;42.208;24.952;2024-03-23T11:45:42;99687.53;;;18.61;38.44
33554;BME280;19885;42.208;24.952;2024-03-23T11:48:11;99669.34;;;18.81;40.07
33554;BME280;19885;42.208;24.952;2024-03-23T11:50:46;99624.19;;;18.61;38.34
33554;BME280;19885;42.208;24.952;2024-03-23T11:53:16;99667.22;;;18.94;37.17
33554;BME280;19885;42.208;24.952;2024-03-23T11:55:45;99656.84;;;19.15;38.75
33554;BME280;19885;42.208;24.952;2024-03-23T11:58:10;99653.97;;;19.23;36.91
33554;BME280;19885;42.208;24.952;2024-03-23T12:00:36;99648.47;;;19.29;36.73
33554;BME280;19885;42.208;24.952;2024-03-23T12:03:05;99647.41;;;19.35;36.52
33554;BME280;19885;42.208;24.952;2024-03-23T12:05:31;99650.47;;;19.50;38.53
33554;BME280;19885;42.208;24.952;2024-03-23T12:11:13;99636.03;;;19.60;38.01
33554;BME280;19885;42.208;24.952;2024-03-23T12:13:40;99631.19;;;19.73;36.73
33554;BME280;19885;42.208;24.952;2024-03-23T12:16:29;99627.94;;;19.39;35.85
33554;BME280;19885;42.208;24.952;2024-03-23T12:18:53;99620.81;;;19.41;34.04
33554;BME280;19885;42.208;24.952;2024-03-23T12:21:29;99618.81;;;19.73;40.70
33554;BME280;19885;42.208;24.952;2024-03-23T12:23:55;99613.75;;;19.41;32.96
33554;BME280;19885;42.208;24.952;2024-03-23T12:26:20;99612.72;;;19.45;33.62
33554;BME280;19885;42.208;24.952;2024-03-23T12:28:46;99602.16;;;19.71;36.77
33554;BME280;19885;42.208;24.952;2024-03-23T12:31:11;99600.50;;;19.67;36.85
33554;BME280;19885;42.208;24.952;2024-03-23T12:33:39;99597.75;;;19.70;33.44
33554;BME280;19885;42.208;24.952;2024-03-23T12:36:08;99592.69;;;18.84;30.15
33554;BME280;19885;42.208;24.952;2024-03-23T12:38:36;99588.78;;;18.96;35.33
33554;BME280;19885;42.208;24.952;2024-03-23T12:41:01;99588.47;;;19.33;36.16
33554;BME280;19885;42.208;24.952;2024-03-23T12:43:29;99571.72;;;19.60;35.56
33554;BME280;19885;42.208;24.952;2024-03-23T12:45:55;99576.84;;;19.38;32.63
33554;BME280;19885;42.208;24.952;2024-03-23T12:48:20;99568.00;;;19.39;35.54
33554;BME280;19885;42.208;24.952;2024-03-23T12:50:48;99569.81;;;19.63;34.74
33554;BME280;19885;42.208;24.952;2024-03-23T12:53:16;99565.88;;;19.50;32.42
33554;BME280;19885;42.208;24.952;2024-03-23T12:55:42;99560.75;;;19.70;33.22
33554;BME280;19885;42.208;24.952;2024-03-23T12:58:07;99558.22;;;19.92;33.32
33554;BME280;19885;42.208;24.952;2024-03-23T13:00:32;99554.56;;;19.94;33.18
33554;BME280;19885;42.208;24.952;2024-03-23T13:02:58;99546.53;;;19.98;32.43
33554;BME280;19885;42.208;24.952;2024-03-23T13:05:23;99547.63;;;19.92;33.07
33554;BME280;19885;42.208;24.952;2024-03-23T13:07:48;99546.88;;;19.88;34.80
33554;BME280;19885;42.208;24.952;2024-03-23T13:10:14;99538.94;;;19.88;33.17
33554;BME280;19885;42.208;24.952;2024-03-23T13:12:41;99538.75;;;19.93;32.52
33554;BME280;19885;42.208;24.952;2024-03-23T13:15:10;99528.94;;;19.97;32.54
33554;BME280;19885;42.208;24.952;2024-03-23T13:17:38;99530.56;;;20.01;34.08
33554;BME280;19885;42.208;24.952;2024-03-23T13:20:04;99522.13;;;20.13;32.61
33554;BME280;19885;42.208;24.952;2024-03-23T13:22:29;99531.50;;;20.23;32.33
33554;BME280;19885;42.208;24.952;2024-03-23T13:24:57;99524.25;;;20.28;30.96
33554;BME280;19885;42.208;24.952;2024-03-23T13:27:25;99517.44;;;20.21;30.54
33554;BME280;19885;42.208;24.952;2024-03-23T13:29:53;99521.22;;;19.90;28.98
33554;BME280;19885;42.208;24.952;2024-03-23T13:32:18;99520.69;;;19.81;30.74
33554;BME280;19885;42.208;24.952;2024-03-23T13:34:43;99512.66;;;19.84;30.67
33554;BME280;19885;42.208;24.952;2024-03-23T13:37:09;99516.72;;;19.92;30.12
33554;BME280;19885;42.208;24.952;2024-03-23T13:39:35;99512.94;;;20.00;33.03
33554;BME280;19885;42.208;24.952;2024-03-23T13:42:00;99509.09;;;19.85;30.47
33554;BME280;19885;42.208;24.952;2024-03-23T13:44:26;99509.91;;;19.87;29.36
33554;BME280;19885;42.208;24.952;2024-03-23T13:46:51;99506.03;;;19.72;29.15
33554;BME280;19885;42.208;24.952;2024-03-23T13:49:26;99495.38;;;19.49;30.22
33554;BME280;19885;42.208;24.952;2024-03-23T13:51:53;99494.75;;;19.43;30.26